Terminal Aerodrome Forecast
Issued by NWS

Home | Current Version | Previous Version | Text Only | Print | Product List | Glossary On
Versions: 1 2 3 4 5 6 7 8 9 10 11 12 13 14 15 16 17 18 19 20 21 22 23 24 25
000
FTUS44 KHGX 021120
TAFLBX
TAF
KLBX 021120Z 0212/0312 06006KT P6SM VCSH FEW024 OVC035
     FM021600 36012G20KT P6SM VCSH BKN035 OVC050
     FM022000 35015KT P6SM BKN050
     FM030000 36008KT P6SM BKN100=

USA.gov is the U.S. government's official web portal to all federal, state and local government web resources and services.